Time;durP1;ratioP1;P1;durP2;ratioP2;P2;SDS_P1;SDS_P2;PMS_P1;PMS_P2;Temp;Humidity;BMP_temperature;BMP_pressure;BME280_temperature;BME280_humidity;BME280_pressure;Samples;Min_cycle;Max_cycle;Signal;HPM_P1;HPM_P2
2021/04/14 00:00:36;;;;;;;7.72;4.28;;;4.10;70.20;;;;;;4907776;29;20092;-80
2021/04/14 00:03:07;;;;;;;8.80;4.72;;;4.00;70.40;;;;;;4900535;29;20060;-80
2021/04/14 00:05:36;;;;;;;10.07;4.28;;;4.00;70.50;;;;;;4905813;29;20656;-80
2021/04/14 00:08:02;;;;;;;14.10;4.65;;;4.00;70.60;;;;;;4906265;29;20029;-80
2021/04/14 00:10:30;;;;;;;10.52;3.83;;;3.90;70.60;;;;;;4909395;29;20429;-80
2021/04/14 00:12:57;;;;;;;8.02;3.65;;;3.90;70.80;;;;;;4903136;29;20052;-80
2021/04/14 00:15:27;;;;;;;7.38;4.45;;;3.90;70.80;;;;;;4904325;29;20041;-80
2021/04/14 00:17:52;;;;;;;8.98;4.22;;;3.90;71.00;;;;;;4906346;29;20036;-80
2021/04/14 00:20:18;;;;;;;10.95;3.85;;;3.80;70.90;;;;;;4905903;29;20041;-81
2021/04/14 00:22:44;;;;;;;7.03;3.35;;;3.80;70.80;;;;;;4903468;29;20028;-80
2021/04/14 00:25:13;;;;;;;10.00;4.07;;;3.80;70.80;;;;;;4904433;29;20036;-80
2021/04/14 00:27:39;;;;;;;5.88;3.45;;;3.80;70.80;;;;;;4900844;29;20364;-80
2021/04/14 00:30:07;;;;;;;8.60;3.78;;;3.80;70.80;;;;;;4897767;29;20039;-80
2021/04/14 00:32:33;;;;;;;7.72;3.22;;;3.80;70.90;;;;;;4900073;29;20048;-80
2021/04/14 00:34:59;;;;;;;7.32;3.35;;;3.80;71.10;;;;;;4889804;29;20064;-80
2021/04/14 00:37:25;;;;;;;5.65;3.40;;;3.70;71.20;;;;;;4912781;29;20032;-80
2021/04/14 00:39:50;;;;;;;8.90;3.47;;;3.70;71.30;;;;;;4910805;29;20401;-80
2021/04/14 00:42:16;;;;;;;9.32;3.72;;;3.60;71.40;;;;;;4908938;29;20039;-80
2021/04/14 00:44:41;;;;;;;8.30;3.85;;;3.60;71.40;;;;;;4880838;29;20044;-80
2021/04/14 00:47:07;;;;;;;7.38;3.90;;;3.50;71.40;;;;;;4907933;29;20024;-80
2021/04/14 00:49:33;;;;;;;9.27;4.22;;;3.50;71.50;;;;;;4913633;29;20036;-80
2021/04/14 00:51:58;;;;;;;10.15;4.03;;;3.50;71.50;;;;;;4905434;29;20116;-80
2021/04/14 00:54:24;;;;;;;6.28;3.78;;;3.40;71.50;;;;;;4890151;29;20044;-80
2021/04/14 00:56:49;;;;;;;7.53;3.65;;;3.40;71.70;;;;;;4905215;29;20036;-80
2021/04/14 00:59:15;;;;;;;8.93;3.45;;;3.40;71.80;;;;;;4904883;29;20028;-80
2021/04/14 01:01:41;;;;;;;9.32;3.78;;;3.40;71.80;;;;;;4908210;29;20057;-80
2021/04/14 01:04:09;;;;;;;8.65;3.70;;;3.40;72.00;;;;;;4902981;29;20042;-80
2021/04/14 01:06:35;;;;;;;7.63;4.03;;;3.30;72.20;;;;;;4904627;29;20032;-80
2021/04/14 01:09:01;;;;;;;13.90;4.20;;;3.30;72.40;;;;;;4899745;29;20029;-80
2021/04/14 01:11:28;;;;;;;13.23;4.15;;;3.30;72.60;;;;;;4901362;29;20036;-80
2021/04/14 01:13:54;;;;;;;7.90;3.58;;;3.20;72.70;;;;;;4904315;29;20111;-80
2021/04/14 01:16:20;;;;;;;9.25;3.63;;;3.30;72.80;;;;;;4900623;29;20120;-80
2021/04/14 01:18:46;;;;;;;8.32;3.65;;;3.30;72.80;;;;;;4898249;29;20482;-80
2021/04/14 01:21:39;;;;;;;6.95;3.35;;;3.20;72.90;;;;;;4905877;29;20076;-80
2021/04/14 01:24:10;;;;;;;5.72;3.42;;;3.20;73.70;;;;;;4908452;29;20449;-80
2021/04/14 01:26:35;;;;;;;7.25;3.50;;;3.20;73.00;;;;;;4899629;29;20035;-80
2021/04/14 01:29:02;;;;;;;8.32;3.25;;;3.20;73.00;;;;;;4890813;29;20489;-80
2021/04/14 01:31:33;;;;;;;7.75;3.47;;;3.30;73.10;;;;;;4896946;29;20025;-80
2021/04/14 01:34:02;;;;;;;7.90;3.90;;;3.20;73.00;;;;;;4894445;29;20403;-80
2021/04/14 01:36:27;;;;;;;11.98;3.55;;;3.30;73.10;;;;;;4899345;29;20095;-80
2021/04/14 01:38:53;;;;;;;11.43;4.05;;;3.30;73.00;;;;;;4891731;29;20119;-80
2021/04/14 01:41:19;;;;;;;10.25;3.92;;;3.30;72.90;;;;;;4902163;29;20375;-80
2021/04/14 01:43:44;;;;;;;8.27;4.20;;;3.30;73.00;;;;;;4908618;29;20202;-80
2021/04/14 01:46:10;;;;;;;10.50;4.20;;;3.20;73.00;;;;;;4901595;29;20494;-80
2021/04/14 01:48:36;;;;;;;9.93;3.70;;;3.20;73.20;;;;;;4900490;29;20043;-80
2021/04/14 01:51:01;;;;;;;7.43;3.63;;;3.20;73.40;;;;;;4914753;29;20028;-80
2021/04/14 01:53:27;;;;;;;9.20;3.42;;;3.10;73.50;;;;;;4907681;29;20047;-80
2021/04/14 01:55:53;;;;;;;12.45;3.78;;;3.10;74.10;;;;;;4906274;29;20036;-80
2021/04/14 01:58:20;;;;;;;9.18;3.47;;;3.10;73.50;;;;;;4912173;29;20062;-80
2021/04/14 02:00:54;;;;;;;10.25;3.95;;;3.10;73.40;;;;;;4904969;29;20488;-80
2021/04/14 02:03:21;;;;;;;7.25;3.22;;;3.10;73.50;;;;;;4902337;29;20080;-80
2021/04/14 02:05:47;;;;;;;7.00;3.40;;;3.10;73.60;;;;;;4907144;29;20054;-80
2021/04/14 02:08:13;;;;;;;11.43;3.70;;;3.10;73.70;;;;;;4900107;29;20029;-80
2021/04/14 02:10:39;;;;;;;5.82;3.40;;;3.00;73.90;;;;;;4902833;29;20039;-80
2021/04/14 02:13:10;;;;;;;5.40;3.00;;;3.00;74.10;;;;;;4910198;29;20091;-80
2021/04/14 02:15:36;;;;;;;6.97;3.20;;;3.00;74.30;;;;;;4912238;29;20027;-80
2021/04/14 02:18:04;;;;;;;8.55;3.60;;;3.10;74.40;;;;;;4911942;29;20032;-80
2021/04/14 02:20:31;;;;;;;6.85;3.58;;;3.10;74.40;;;;;;4909591;29;20032;-80
2021/04/14 02:22:56;;;;;;;7.63;3.45;;;3.10;74.30;;;;;;4909552;29;20032;-80
2021/04/14 02:25:23;;;;;;;6.75;3.40;;;3.20;74.30;;;;;;4905993;29;20036;-80
2021/04/14 02:27:50;;;;;;;9.68;3.55;;;3.10;74.30;;;;;;4901741;29;20384;-80
2021/04/14 02:30:27;;;;;;;5.63;3.30;;;3.10;74.40;;;;;;4907302;29;20031;-80
2021/04/14 02:32:54;;;;;;;6.90;3.20;;;3.10;74.80;;;;;;4908193;29;20020;-80
2021/04/14 02:35:21;;;;;;;7.35;3.55;;;3.00;74.90;;;;;;4906282;29;20040;-80
2021/04/14 02:37:50;;;;;;;6.28;3.67;;;3.00;75.00;;;;;;4908387;29;20033;-80
2021/04/14 02:40:16;;;;;;;9.07;4.03;;;3.10;75.20;;;;;;4901350;29;20040;-80
2021/04/14 02:42:42;;;;;;;9.60;3.60;;;3.10;75.10;;;;;;4908466;29;20064;-80
2021/04/14 02:45:10;;;;;;;4.38;3.05;;;3.00;75.20;;;;;;4905612;29;20056;-80
2021/04/14 02:47:36;;;;;;;8.43;3.10;;;3.00;75.40;;;;;;4906915;29;20037;-80
2021/04/14 02:50:05;;;;;;;9.25;4.70;;;3.10;75.60;;;;;;4909110;29;20462;-80
2021/04/14 02:52:30;;;;;;;7.63;3.78;;;3.10;75.70;;;;;;4906287;29;20020;-80
2021/04/14 02:54:56;;;;;;;6.80;3.40;;;3.20;75.50;;;;;;4910338;29;20478;-80
2021/04/14 02:57:21;;;;;;;6.03;3.15;;;3.20;75.30;;;;;;4907154;29;20099;-80
2021/04/14 02:59:47;;;;;;;9.60;3.30;;;3.30;75.10;;;;;;4907610;29;20076;-80
2021/04/14 03:02:13;;;;;;;10.35;4.82;;;3.20;75.00;;;;;;4904879;29;20049;-80
2021/04/14 03:04:38;;;;;;;10.50;6.03;;;3.20;75.30;;;;;;4909977;29;20049;-80
2021/04/14 03:07:04;;;;;;;12.25;5.70;;;3.20;75.50;;;;;;4907045;29;20028;-80
2021/04/14 03:09:30;;;;;;;9.50;5.40;;;3.20;75.60;;;;;;4907321;29;20035;-80
2021/04/14 03:11:56;;;;;;;9.93;5.20;;;3.20;75.90;;;;;;4913347;29;20039;-80
2021/04/14 03:14:21;;;;;;;10.07;5.25;;;3.20;75.90;;;;;;4909436;29;20036;-80
2021/04/14 03:16:47;;;;;;;7.63;4.65;;;3.30;76.10;;;;;;4912892;29;20035;-80
2021/04/14 03:19:12;;;;;;;9.70;5.15;;;3.30;76.00;;;;;;4899177;29;20056;-80
2021/04/14 03:21:38;;;;;;;9.30;4.57;;;3.40;76.00;;;;;;4901861;29;20216;-80
2021/04/14 03:24:05;;;;;;;10.52;4.35;;;3.40;76.10;;;;;;4901936;29;20541;-80
2021/04/14 03:26:30;;;;;;;8.57;4.50;;;3.40;75.90;;;;;;4903012;29;20394;-80
2021/04/14 03:29:00;;;;;;;9.50;5.10;;;3.40;75.80;;;;;;4903402;29;20028;-80
2021/04/14 03:31:26;;;;;;;10.18;4.50;;;3.40;76.00;;;;;;4908237;29;20033;-80
2021/04/14 03:33:53;;;;;;;9.40;5.07;;;3.40;76.00;;;;;;4904472;29;20044;-80
2021/04/14 03:36:19;;;;;;;8.38;4.60;;;3.40;76.20;;;;;;4905941;29;20032;-80
2021/04/14 03:38:45;;;;;;;8.93;4.68;;;3.30;76.30;;;;;;4904683;29;20032;-80
2021/04/14 03:41:10;;;;;;;12.82;4.57;;;3.30;76.50;;;;;;4900695;29;20043;-80
2021/04/14 03:43:36;;;;;;;8.60;4.53;;;3.30;76.50;;;;;;4907388;29;20417;-80
2021/04/14 03:46:02;;;;;;;10.02;4.30;;;3.30;76.50;;;;;;4904541;29;20056;-80
2021/04/14 03:48:28;;;;;;;11.98;4.82;;;3.30;76.70;;;;;;4901112;29;20020;-80
2021/04/14 03:50:54;;;;;;;10.30;4.80;;;3.30;76.80;;;;;;4886198;29;20065;-80
2021/04/14 03:53:27;;;;;;;9.50;4.40;;;3.30;77.00;;;;;;4906243;29;20032;-80
2021/04/14 03:56:01;;;;;;;9.13;4.18;;;3.30;77.20;;;;;;4907530;29;20104;-80
2021/04/14 03:58:28;;;;;;;7.82;4.75;;;3.30;77.20;;;;;;4906454;29;20446;-80
2021/04/14 04:00:56;;;;;;;9.98;5.00;;;3.30;76.90;;;;;;4899069;29;20032;-80
2021/04/14 04:03:23;;;;;;;13.57;5.00;;;3.30;77.00;;;;;;4900961;29;20061;-80
2021/04/14 04:05:49;;;;;;;11.48;4.95;;;3.30;77.00;;;;;;4889044;29;20674;-80
2021/04/14 04:08:15;;;;;;;9.50;4.68;;;3.20;77.20;;;;;;4906171;29;20438;-80
2021/04/14 04:10:41;;;;;;;9.05;4.70;;;3.30;77.30;;;;;;4895116;29;20028;-80
2021/04/14 04:13:10;;;;;;;12.48;5.05;;;3.20;77.30;;;;;;4912187;29;20024;-80
2021/04/14 04:15:38;;;;;;;8.68;4.35;;;3.20;77.40;;;;;;4903319;29;20064;-80
2021/04/14 04:18:05;;;;;;;10.38;5.07;;;3.20;77.50;;;;;;4905947;29;20434;-80
2021/04/14 04:20:31;;;;;;;12.15;5.88;;;3.10;77.50;;;;;;4909721;29;20037;-80
2021/04/14 04:22:58;;;;;;;11.52;5.82;;;3.10;77.70;;;;;;4901130;29;20116;-80
2021/04/14 04:25:24;;;;;;;15.35;7.40;;;3.10;77.80;;;;;;4901552;29;20040;-80
2021/04/14 04:27:49;;;;;;;16.27;6.93;;;3.10;77.90;;;;;;4891909;29;20501;-80
2021/04/14 04:30:16;;;;;;;14.10;5.80;;;3.10;77.90;;;;;;4908977;29;20043;-80
2021/04/14 04:32:41;;;;;;;11.00;5.55;;;3.10;77.80;;;;;;4909949;29;20131;-80
2021/04/14 04:35:09;;;;;;;13.82;6.13;;;3.20;77.80;;;;;;4903012;29;20519;-80
2021/04/14 04:37:35;;;;;;;11.73;5.35;;;3.20;77.90;;;;;;4901714;29;20406;-80
2021/04/14 04:40:01;;;;;;;13.27;6.50;;;3.20;77.90;;;;;;4904095;29;20042;-80
2021/04/14 04:42:26;;;;;;;11.27;6.35;;;3.20;77.90;;;;;;4907769;29;20044;-80
2021/04/14 04:44:54;;;;;;;15.30;6.43;;;3.10;77.90;;;;;;4905313;29;20044;-80
2021/04/14 04:47:20;;;;;;;10.70;5.63;;;3.10;78.00;;;;;;4883039;29;20542;-80
2021/04/14 04:49:45;;;;;;;11.27;5.82;;;3.20;78.10;;;;;;4903487;29;20040;-80
2021/04/14 04:52:11;;;;;;;8.98;4.82;;;3.20;78.10;;;;;;4904113;29;20033;-80
2021/04/14 04:54:37;;;;;;;14.90;5.45;;;3.20;78.20;;;;;;4902781;29;20036;-80
2021/04/14 04:57:03;;;;;;;10.45;5.15;;;3.20;78.20;;;;;;4906562;29;20514;-80
2021/04/14 04:59:29;;;;;;;11.07;4.47;;;3.20;78.10;;;;;;4901295;29;20035;-80
2021/04/14 05:01:58;;;;;;;10.57;4.80;;;3.20;78.00;;;;;;4907365;29;20107;-80
2021/04/14 05:04:24;;;;;;;11.82;5.00;;;3.20;78.00;;;;;;4902719;29;20071;-80
2021/04/14 05:06:49;;;;;;;7.57;4.57;;;3.20;77.90;;;;;;4907307;29;20064;-80
2021/04/14 05:09:15;;;;;;;7.47;3.70;;;3.20;77.90;;;;;;4902799;29;20032;-80
2021/04/14 05:11:40;;;;;;;6.20;3.65;;;3.20;77.80;;;;;;4905665;29;20060;-80
2021/04/14 05:14:06;;;;;;;7.18;3.03;;;3.20;77.70;;;;;;4902770;29;20040;-80
2021/04/14 05:16:32;;;;;;;5.95;3.58;;;3.20;77.70;;;;;;4892396;29;20036;-80
2021/04/14 05:18:57;;;;;;;5.78;3.58;;;3.30;77.70;;;;;;4906485;29;20793;-80
2021/04/14 05:21:23;;;;;;;6.72;3.03;;;3.30;77.60;;;;;;4909500;29;20036;-80
2021/04/14 05:23:50;;;;;;;6.18;3.67;;;3.30;77.50;;;;;;4908263;29;20115;-80
2021/04/14 05:26:16;;;;;;;11.07;4.10;;;3.30;77.50;;;;;;4910217;29;20493;-80
2021/04/14 05:28:45;;;;;;;10.45;3.95;;;3.40;77.50;;;;;;4904271;29;20553;-80
2021/04/14 05:31:12;;;;;;;6.75;3.90;;;3.30;77.50;;;;;;4905323;29;20024;-80
2021/04/14 05:33:38;;;;;;;5.55;3.60;;;3.30;77.50;;;;;;4888585;29;20060;-80
2021/04/14 05:36:04;;;;;;;6.00;3.75;;;3.30;77.50;;;;;;4906036;29;20127;-80
2021/04/14 05:38:31;;;;;;;8.52;4.15;;;3.30;77.60;;;;;;4918389;29;20032;-80
2021/04/14 05:40:58;;;;;;;5.43;3.42;;;3.30;77.60;;;;;;4904750;29;20032;-80
2021/04/14 05:43:30;;;;;;;14.77;4.20;;;3.30;77.50;;;;;;4903565;29;20566;-80
2021/04/14 05:45:57;;;;;;;7.95;4.10;;;3.40;77.40;;;;;;4905413;29;20063;-80
2021/04/14 05:48:24;;;;;;;6.75;3.92;;;3.40;77.20;;;;;;4904260;29;20115;-80
2021/04/14 05:50:50;;;;;;;5.40;3.70;;;3.40;77.30;;;;;;4907226;29;20697;-80
2021/04/14 05:53:16;;;;;;;5.65;3.38;;;3.40;77.30;;;;;;4907209;29;20056;-80
2021/04/14 05:55:42;;;;;;;6.78;3.95;;;3.40;77.40;;;;;;4905729;29;20084;-80
2021/04/14 05:58:07;;;;;;;8.52;4.70;;;3.40;77.40;;;;;;4909200;29;20081;-80
2021/04/14 06:00:33;;;;;;;7.85;4.22;;;3.50;78.00;;;;;;4890567;29;20032;-80
2021/04/14 06:02:58;;;;;;;5.97;4.40;;;3.50;77.40;;;;;;4905422;29;20063;-80
2021/04/14 06:05:25;;;;;;;9.77;4.63;;;3.60;77.40;;;;;;4903833;29;20033;-80
2021/04/14 06:07:51;;;;;;;6.95;4.00;;;3.60;77.30;;;;;;4906393;29;20017;-80
2021/04/14 06:10:19;;;;;;;7.07;4.32;;;3.70;77.20;;;;;;4905116;29;20521;-80
2021/04/14 06:12:46;;;;;;;6.63;4.20;;;3.80;77.20;;;;;;4906044;29;20391;-80
2021/04/14 06:15:14;;;;;;;9.30;4.28;;;3.80;77.00;;;;;;4906007;29;20076;-81
2021/04/14 06:17:41;;;;;;;5.65;3.88;;;3.90;77.10;;;;;;4907664;29;20035;-80
2021/04/14 06:20:09;;;;;;;6.45;4.05;;;4.00;76.90;;;;;;4912522;29;20060;-80
2021/04/14 06:22:36;;;;;;;9.43;4.75;;;4.10;76.90;;;;;;4899348;29;20047;-81
2021/04/14 06:25:03;;;;;;;9.15;4.38;;;4.20;76.70;;;;;;4908085;29;20039;-81
2021/04/14 06:27:33;;;;;;;7.07;4.70;;;4.30;76.50;;;;;;4907372;29;20032;-81
2021/04/14 06:29:59;;;;;;;5.10;4.32;;;4.40;76.40;;;;;;4917382;29;20060;-81
2021/04/14 06:32:25;;;;;;;12.50;5.65;;;4.40;76.50;;;;;;4905168;29;20418;-81
2021/04/14 06:34:52;;;;;;;9.52;6.22;;;4.50;76.60;;;;;;4912581;29;20033;-81
2021/04/14 06:37:18;;;;;;;10.35;5.53;;;4.50;76.30;;;;;;4909849;29;20393;-80
2021/04/14 06:39:49;;;;;;;6.53;4.55;;;4.60;76.20;;;;;;4918058;29;20032;-81
2021/04/14 06:42:49;;;;;;;7.57;4.95;;;4.60;76.10;;;;;;4917394;29;20062;-81
2021/04/14 06:45:27;;;;;;;11.32;4.95;;;4.70;76.10;;;;;;4900103;29;20035;-81
2021/04/14 06:48:01;;;;;;;6.13;4.32;;;4.70;75.90;;;;;;4905668;29;20525;-81
2021/04/14 06:50:31;;;;;;;8.60;4.68;;;4.80;75.70;;;;;;4900740;29;20073;-81
2021/04/14 06:53:25;;;;;;;6.95;4.68;;;4.80;75.70;;;;;;4898729;29;20021;-81
2021/04/14 06:56:00;;;;;;;7.82;5.13;;;4.80;75.70;;;;;;4899937;29;20115;-81
2021/04/14 06:58:48;;;;;;;9.25;4.70;;;4.90;75.50;;;;;;4900085;29;20103;-81
2021/04/14 07:01:22;;;;;;;11.15;5.90;;;5.00;75.40;;;;;;4890840;29;20021;-81
2021/04/14 07:04:20;;;;;;;6.13;4.80;;;5.00;75.20;;;;;;4911678;29;20028;-81
2021/04/14 07:06:50;;;;;;;8.68;5.07;;;5.10;75.70;;;;;;4897802;29;20511;-81
2021/04/14 07:09:22;;;;;;;8.77;4.97;;;5.20;74.80;;;;;;4892547;29;20044;-80
2021/04/14 07:11:48;;;;;;;10.65;4.95;;;5.20;74.60;;;;;;4900236;29;20506;-80
2021/04/14 07:14:17;;;;;;;14.77;5.75;;;5.20;74.30;;;;;;4899833;29;20563;-81
2021/04/14 07:17:00;;;;;;;10.52;5.07;;;5.20;74.40;;;;;;4882724;29;20036;-81
2021/04/14 07:19:48;;;;;;;9.25;5.15;;;5.20;74.60;;;;;;4880877;29;20394;-80
2021/04/14 07:22:47;;;;;;;7.65;3.85;;;5.20;74.80;;;;;;4894325;29;20032;-80
2021/04/14 07:25:25;;;;;;;8.77;4.75;;;5.30;74.60;;;;;;4898166;29;20036;-81
2021/04/14 07:28:10;;;;;;;7.75;4.45;;;5.50;74.10;;;;;;4910997;29;20036;-81
2021/04/14 07:30:40;;;;;;;10.35;5.57;;;5.70;73.60;;;;;;4880600;29;20017;-81
2021/04/14 07:33:24;;;;;;;15.35;5.25;;;6.00;72.90;;;;;;4880641;29;20387;-82
2021/04/14 07:36:17;;;;;;;13.32;5.20;;;6.20;71.80;;;;;;4913755;29;20036;-81
2021/04/14 07:39:05;;;;;;;12.90;5.13;;;6.50;71.10;;;;;;4905350;29;20032;-82
2021/04/14 07:41:51;;;;;;;6.40;4.63;;;6.70;71.10;;;;;;4897634;29;20048;-81
2021/04/14 07:44:32;;;;;;;8.85;4.72;;;6.80;70.00;;;;;;4899726;29;20845;-83
2021/04/14 07:46:58;;;;;;;11.10;4.30;;;6.90;69.30;;;;;;4897498;29;20036;-80
2021/04/14 07:49:29;;;;;;;9.73;5.32;;;7.10;68.10;;;;;;4897722;29;20029;-84
2021/04/14 07:51:55;;;;;;;12.85;5.28;;;7.20;67.90;;;;;;4897657;29;20028;-83
2021/04/14 07:54:23;;;;;;;8.90;4.32;;;7.40;67.70;;;;;;4898012;29;20040;-84
2021/04/14 07:56:56;;;;;;;9.60;4.80;;;7.60;67.00;;;;;;4882385;29;20033;-84
2021/04/14 07:59:24;;;;;;;7.57;4.70;;;7.80;66.30;;;;;;4897667;29;20032;-84
2021/04/14 08:01:56;;;;;;;8.98;4.68;;;8.10;65.80;;;;;;4909640;29;20080;-84
2021/04/14 08:04:27;;;;;;;14.52;6.72;;;8.10;65.10;;;;;;4898801;29;20115;-84
2021/04/14 08:06:53;;;;;;;11.75;6.28;;;8.10;63.80;;;;;;4898844;29;20032;-84
2021/04/14 08:09:21;;;;;;;8.82;5.60;;;8.10;63.60;;;;;;4899014;29;20028;-84
2021/04/14 08:11:49;;;;;;;11.80;5.43;;;8.10;63.90;;;;;;4897529;29;20434;-84
2021/04/14 08:14:23;;;;;;;9.87;5.50;;;8.20;63.80;;;;;;4897446;29;20037;-84
2021/04/14 08:16:52;;;;;;;9.13;5.60;;;8.40;63.60;;;;;;4898860;29;20024;-84
2021/04/14 08:19:18;;;;;;;8.65;5.60;;;8.50;63.40;;;;;;4898573;29;20033;-84
2021/04/14 08:22:05;;;;;;;11.50;6.25;;;8.70;63.30;;;;;;4898462;29;20033;-84
2021/04/14 08:24:36;;;;;;;14.93;6.85;;;8.90;62.50;;;;;;4897207;29;20040;-84
2021/04/14 08:27:47;;;;;;;10.38;6.85;;;9.00;61.80;;;;;;4897186;29;20025;-84
2021/04/14 08:30:16;;;;;;;10.77;5.65;;;9.10;61.00;;;;;;4898208;29;20032;-83
2021/04/14 08:33:01;;;;;;;14.00;6.82;;;9.10;60.10;;;;;;4899360;29;20025;-84
2021/04/14 08:35:37;;;;;;;7.95;5.50;;;9.10;60.30;;;;;;4889149;29;20036;-84
2021/04/14 08:38:11;;;;;;;9.63;5.65;;;9.30;60.70;;;;;;4898375;29;20039;-85
2021/04/14 08:40:57;;;;;;;10.30;5.57;;;9.40;60.20;;;;;;4898396;29;20483;-84
2021/04/14 08:43:32;;;;;;;8.55;4.97;;;9.70;59.90;;;;;;4898346;29;20059;-85
2021/04/14 08:46:31;;;;;;;9.52;4.93;;;9.80;59.50;;;;;;4898249;29;20025;-85
2021/04/14 08:49:04;;;;;;;;;;;9.90;58.70;;;;;;4898808;29;20024;-85
2021/04/14 08:51:38;;;;;;;7.68;5.00;;;10.00;58.70;;;;;;4902970;29;20357;-86
2021/04/14 08:54:06;;;;;;;8.35;4.93;;;10.00;59.00;;;;;;4904333;29;20518;-85
2021/04/14 08:56:31;;;;;;;7.75;4.15;;;10.20;58.80;;;;;;4904264;29;20040;-86
2021/04/14 08:58:57;;;;;;;7.57;3.83;;;10.40;58.70;;;;;;4904589;29;20037;-85
2021/04/14 09:01:29;;;;;;;9.02;5.28;;;10.40;58.20;;;;;;4902986;29;20055;-85
2021/04/14 09:03:56;;;;;;;10.57;4.40;;;10.60;57.20;;;;;;4903989;29;20095;-84
2021/04/14 09:06:22;;;;;;;8.32;4.57;;;10.70;57.40;;;;;;4904395;29;20052;-85
2021/04/14 09:08:50;;;;;;;8.23;4.40;;;10.80;57.30;;;;;;4909690;29;20105;-84
2021/04/14 09:11:26;;;;;;;9.93;4.90;;;10.90;57.00;;;;;;4919376;29;20510;-84
2021/04/14 09:14:14;;;;;;;8.80;4.68;;;11.00;56.60;;;;;;4902826;29;20028;-84
2021/04/14 09:16:54;;;;;;;9.05;4.47;;;11.10;56.60;;;;;;4913459;29;20503;-84
2021/04/14 09:19:26;;;;;;;8.60;4.80;;;10.90;57.00;;;;;;4923170;29;20032;-85
2021/04/14 09:22:01;;;;;;;9.38;5.30;;;10.60;57.50;;;;;;4917922;29;20024;-85
2021/04/14 09:24:27;;;;;;;8.55;4.97;;;10.30;57.60;;;;;;4902837;29;20064;-85
2021/04/14 09:26:58;;;;;;;10.43;5.68;;;10.10;58.00;;;;;;4903030;29;20059;-83
2021/04/14 09:29:42;;;;;;;9.15;5.35;;;9.90;57.90;;;;;;4903797;29;20031;-84
2021/04/14 09:32:13;;;;;;;8.43;5.75;;;9.80;58.40;;;;;;4903636;29;20024;-85
2021/04/14 09:34:43;;;;;;;10.82;5.82;;;9.60;57.80;;;;;;4904196;29;20020;-85
2021/04/14 09:37:31;;;;;;;8.30;5.10;;;9.50;58.10;;;;;;4902959;29;20032;-85
2021/04/14 09:40:03;;;;;;;5.60;4.25;;;9.50;58.20;;;;;;4903966;29;20103;-85
2021/04/14 09:42:32;;;;;;;6.95;4.50;;;9.30;58.50;;;;;;4903965;29;20478;-85
2021/04/14 09:45:11;;;;;;;10.85;4.57;;;9.30;58.60;;;;;;4902643;29;20406;-85
2021/04/14 09:47:37;;;;;;;8.95;4.82;;;9.40;58.50;;;;;;4903944;29;20021;-85
2021/04/14 09:50:27;;;;;;;7.78;3.97;;;9.40;58.10;;;;;;4903972;29;20037;-85
2021/04/14 09:53:03;;;;;;;5.03;3.67;;;9.40;57.50;;;;;;4915479;29;20028;-85
2021/04/14 09:55:49;;;;;;;5.95;3.75;;;9.50;57.20;;;;;;4906713;29;20040;-85
2021/04/14 09:58:23;;;;;;;6.93;3.78;;;9.50;56.90;;;;;;4901798;29;20044;-85
2021/04/14 10:00:53;;;;;;;4.85;3.20;;;9.60;55.80;;;;;;4902594;29;20039;-84
2021/04/14 10:03:30;;;;;;;5.80;3.25;;;9.50;56.00;;;;;;4898252;29;20049;-84
2021/04/14 10:06:06;;;;;;;6.53;3.50;;;9.50;55.70;;;;;;4900642;29;20048;-85
2021/04/14 10:08:33;;;;;;;7.63;3.97;;;9.60;55.70;;;;;;4900894;29;20100;-81
2021/04/14 10:10:59;;;;;;;7.60;4.68;;;9.60;55.60;;;;;;4900878;29;20037;-81
2021/04/14 10:13:29;;;;;;;7.97;5.15;;;9.50;55.00;;;;;;4899503;29;20033;-81
2021/04/14 10:15:55;;;;;;;8.88;4.60;;;9.50;54.80;;;;;;4900684;29;20088;-86
2021/04/14 10:18:24;;;;;;;9.60;5.47;;;9.40;55.40;;;;;;4900645;29;20029;-81
2021/04/14 10:20:51;;;;;;;8.48;5.15;;;9.50;54.20;;;;;;4899364;29;20044;-81
2021/04/14 10:23:21;;;;;;;8.27;5.47;;;9.50;54.20;;;;;;4900531;29;20037;-81
2021/04/14 10:25:48;;;;;;;9.77;5.35;;;9.50;54.10;;;;;;4911151;29;20032;-82
2021/04/14 10:28:14;;;;;;;9.10;5.53;;;9.60;54.50;;;;;;4916043;29;20100;-82
2021/04/14 10:30:44;;;;;;;9.32;6.13;;;10.00;53.60;;;;;;4900524;29;20470;-82
2021/04/14 10:33:17;;;;;;;7.95;5.10;;;10.20;50.80;;;;;;4898808;29;20075;-82
2021/04/14 10:35:44;;;;;;;8.05;5.22;;;10.40;52.00;;;;;;4881561;29;20033;-82
2021/04/14 10:38:13;;;;;;;9.63;4.93;;;10.80;51.70;;;;;;4894943;29;20167;-83
2021/04/14 10:40:43;;;;;;;9.50;5.15;;;11.20;51.30;;;;;;4908339;29;20099;-82
2021/04/14 10:43:13;;;;;;;9.90;5.85;;;11.30;50.50;;;;;;4903834;29;20397;-82
2021/04/14 10:46:14;;;;;;;9.25;5.80;;;11.30;49.40;;;;;;4917559;29;20481;-82
2021/04/14 10:48:46;;;;;;;11.25;6.80;;;11.00;49.30;;;;;;4889968;29;21319;-82
2021/04/14 10:51:23;;;;;;;10.85;6.85;;;10.70;49.70;;;;;;4910752;29;20024;-82
2021/04/14 10:53:52;;;;;;;7.43;5.57;;;10.60;50.10;;;;;;4917665;29;20055;-82
2021/04/14 10:56:22;;;;;;;12.23;6.90;;;10.50;50.60;;;;;;4911067;29;20115;-82
2021/04/14 10:58:50;;;;;;;9.65;6.35;;;10.30;48.70;;;;;;4899701;29;20470;-82
2021/04/14 11:01:18;;;;;;;12.55;6.85;;;10.20;49.40;;;;;;4899739;29;20033;-83
2021/04/14 11:04:07;;;;;;;11.65;5.90;;;10.10;49.10;;;;;;4899484;29;20051;-82
2021/04/14 11:06:34;;;;;;;10.45;5.68;;;10.10;49.70;;;;;;4890628;29;20045;-82
2021/04/14 11:09:01;;;;;;;9.90;6.10;;;10.00;50.30;;;;;;4898923;29;20088;-82
2021/04/14 11:11:26;;;;;;;12.13;6.78;;;10.20;50.40;;;;;;4898974;29;20056;-82
2021/04/14 11:13:52;;;;;;;14.77;6.93;;;10.30;49.70;;;;;;4904432;29;20063;-82
2021/04/14 11:16:18;;;;;;;10.88;6.50;;;10.40;50.00;;;;;;4899871;29;20059;-82
2021/04/14 11:18:44;;;;;;;10.00;6.30;;;10.40;49.80;;;;;;4883428;29;20067;-82
2021/04/14 11:21:31;;;;;;;8.00;5.07;;;10.40;50.10;;;;;;4900125;29;20032;-80
2021/04/14 11:24:09;;;;;;;7.68;5.35;;;10.40;50.40;;;;;;4917082;29;20398;-81
2021/04/14 11:27:00;;;;;;;9.45;5.97;;;10.30;50.50;;;;;;4916973;29;20076;-81
2021/04/14 11:29:29;;;;;;;12.90;7.13;;;10.20;51.90;;;;;;4918115;29;20028;-80
2021/04/14 11:31:56;;;;;;;9.93;6.75;;;9.80;55.80;;;;;;4917086;29;20043;-81
2021/04/14 11:34:23;;;;;;;10.02;6.70;;;9.50;57.50;;;;;;4918483;29;20071;-80
2021/04/14 11:37:03;;;;;;;11.32;7.45;;;9.20;59.00;;;;;;4916812;29;20024;-80
2021/04/14 11:39:35;;;;;;;13.82;7.97;;;8.90;60.40;;;;;;4918023;29;20126;-80
2021/04/14 11:42:13;;;;;;;12.52;8.32;;;8.70;61.80;;;;;;4918174;29;20478;-81
2021/04/14 11:45:05;;;;;;;17.73;8.95;;;8.50;63.20;;;;;;4909973;29;20497;-81
2021/04/14 11:47:34;;;;;;;15.63;8.32;;;8.30;65.20;;;;;;4897148;29;20052;-81
2021/04/14 11:50:13;;;;;;;14.73;8.75;;;8.20;65.90;;;;;;4897667;29;20036;-81
2021/04/14 11:52:47;;;;;;;;;;;8.10;67.20;;;;;;4899441;29;20490;-80
2021/04/14 11:55:37;;;;;;;11.15;7.72;;;8.20;66.90;;;;;;4897645;29;20333;-81
2021/04/14 11:58:29;;;;;;;11.95;7.72;;;8.30;66.90;;;;;;4893830;29;20479;-80
2021/04/14 12:00:54;;;;;;;10.35;7.35;;;8.40;67.20;;;;;;4898116;29;20378;-81
2021/04/14 12:03:20;;;;;;;11.20;7.32;;;8.60;66.40;;;;;;4917638;29;20055;-81
2021/04/14 12:05:55;;;;;;;9.57;6.38;;;8.60;65.90;;;;;;4917743;29;20489;-81
2021/04/14 12:08:21;;;;;;;12.65;7.07;;;8.70;65.60;;;;;;4917779;29;20039;-80
2021/04/14 12:10:47;;;;;;;13.32;7.55;;;8.80;65.70;;;;;;4917568;29;20094;-81
2021/04/14 12:13:13;;;;;;;17.98;8.57;;;8.90;65.10;;;;;;4916391;29;20028;-81
2021/04/14 12:15:38;;;;;;;11.13;6.47;;;9.00;64.80;;;;;;4917593;29;20032;-80
2021/04/14 12:18:04;;;;;;;12.00;7.25;;;9.10;64.50;;;;;;4917460;29;20493;-80
2021/04/14 12:20:30;;;;;;;14.02;7.90;;;9.10;63.20;;;;;;4917424;29;20563;-80
2021/04/14 12:22:56;;;;;;;10.93;7.38;;;9.20;63.20;;;;;;4916209;29;20036;-80
2021/04/14 12:25:24;;;;;;;12.27;7.55;;;9.30;62.40;;;;;;4917050;29;20032;-81
2021/04/14 12:27:50;;;;;;;14.65;7.95;;;9.30;61.80;;;;;;4917062;29;20028;-80
2021/04/14 12:30:20;;;;;;;12.50;8.05;;;9.30;61.90;;;;;;4916736;29;20031;-81
2021/04/14 12:32:45;;;;;;;12.15;8.50;;;9.30;61.40;;;;;;4915228;29;20055;-81
2021/04/14 12:35:11;;;;;;;10.45;7.70;;;9.10;60.20;;;;;;4917060;29;20485;-81
2021/04/14 12:37:37;;;;;;;11.23;8.23;;;9.10;60.80;;;;;;4915641;29;20039;-81
2021/04/14 12:40:03;;;;;;;9.45;7.03;;;9.20;60.90;;;;;;4915084;29;20040;-81
2021/04/14 12:42:32;;;;;;;9.05;6.30;;;9.30;60.30;;;;;;4899196;29;20039;-81
2021/04/14 12:45:01;;;;;;;9.52;6.82;;;9.50;57.50;;;;;;4915474;29;20111;-81
2021/04/14 12:47:27;;;;;;;;;;;9.90;57.40;;;;;;4917253;29;20137;-81
2021/04/14 12:49:53;;;;;;;10.35;6.60;;;10.10;53.90;;;;;;4916429;29;19947;-80
2021/04/14 12:52:34;;;;;;;9.25;6.07;;;10.30;54.40;;;;;;4905750;29;20052;-80
2021/04/14 12:55:01;;;;;;;9.18;5.78;;;10.40;54.00;;;;;;4904731;29;20170;-81
2021/04/14 12:57:30;;;;;;;11.38;7.05;;;10.40;53.40;;;;;;4897312;29;20040;-80
2021/04/14 12:59:58;;;;;;;;;;;10.60;54.00;;;;;;4903159;29;20500;-79
2021/04/14 13:02:36;;;;;;;9.63;6.43;;;10.60;53.90;;;;;;4898631;29;19915;-81
2021/04/14 13:05:26;;;;;;;11.38;6.25;;;10.80;53.50;;;;;;4878813;29;20534;-80
2021/04/14 13:08:08;;;;;;;9.13;6.70;;;11.00;53.10;;;;;;4907519;29;20025;-81